Time;durP1;ratioP1;P1;durP2;ratioP2;P2;SDS_P1;SDS_P2;PMS_P1;PMS_P2;Temp;Humidity;BMP_temperature;BMP_pressure;BME280_temperature;BME280_humidity;BME280_pressure;Samples;Min_cycle;Max_cycle;Signal;HPM_P1;HPM_P2
2022/01/13 00:02:13;;;;;;;11.93;7.00;;;;;;;;;;4991617;28;20444;-76
2022/01/13 00:04:39;;;;;;;12.32;6.78;;;;;;;;;;4991504;28;20054;-75
2022/01/13 00:07:05;;;;;;;11.90;6.72;;;;;;;;;;4990547;28;20052;-76
2022/01/13 00:09:31;;;;;;;10.55;6.22;;;;;;;;;;4991549;28;20058;-76
2022/01/13 00:11:58;;;;;;;12.93;6.63;;;;;;;;;;4991537;28;20078;-77
2022/01/13 00:14:41;;;;;;;15.82;7.55;;;;;;;;;;4990451;28;20410;-78
2022/01/13 00:19:47;;;;;;;16.77;7.63;;;;;;;;;;4990873;28;20054;-78
2022/01/13 00:22:25;;;;;;;12.20;7.00;;;;;;;;;;4991326;28;20129;-77
2022/01/13 00:24:56;;;;;;;10.27;6.68;;;;;;;;;;4990019;28;20050;-74
2022/01/13 00:27:24;;;;;;;10.27;6.97;;;;;;;;;;4990476;28;20054;-76
2022/01/13 00:29:50;;;;;;;13.77;7.00;;;;;;;;;;4990665;28;20085;-76
2022/01/13 00:32:19;;;;;;;14.82;7.20;;;;;;;;;;4990948;28;20483;-76
2022/01/13 00:34:45;;;;;;;11.85;6.60;;;;;;;;;;4991122;28;20124;-76
2022/01/13 00:37:11;;;;;;;11.57;7.20;;;;;;;;;;4990958;28;20093;-74
2022/01/13 00:39:37;;;;;;;13.32;7.15;;;;;;;;;;4990382;28;20141;-74
2022/01/13 00:42:04;;;;;;;13.75;6.97;;;;;;;;;;4990851;28;20105;-74
2022/01/13 00:44:35;;;;;;;14.45;7.32;;;;;;;;;;4990964;28;20054;-73
2022/01/13 00:47:01;;;;;;;14.00;6.97;;;;;;;;;;4990893;28;20117;-73
2022/01/13 00:49:28;;;;;;;15.50;7.53;;;;;;;;;;4989419;28;20042;-74
2022/01/13 00:51:54;;;;;;;12.00;6.85;;;;;;;;;;4989700;28;20050;-74
2022/01/13 00:54:20;;;;;;;13.77;7.28;;;;;;;;;;4989328;28;20046;-73
2022/01/13 00:56:46;;;;;;;11.63;6.97;;;;;;;;;;4989649;28;20112;-72
2022/01/13 00:59:14;;;;;;;14.93;7.75;;;;;;;;;;4990343;28;20050;-73
2022/01/13 01:01:43;;;;;;;12.65;6.88;;;;;;;;;;4990279;28;20046;-73
2022/01/13 01:04:09;;;;;;;14.23;7.20;;;;;;;;;;4990434;28;20046;-73
2022/01/13 01:06:36;;;;;;;13.30;7.72;;;;;;;;;;4990889;28;20042;-73
2022/01/13 01:09:03;;;;;;;12.18;7.00;;;;;;;;;;4989923;28;20496;-73
2022/01/13 01:11:29;;;;;;;12.23;6.93;;;;;;;;;;4989374;28;20046;-73
2022/01/13 01:13:55;;;;;;;12.60;7.13;;;;;;;;;;4989093;28;20142;-75
2022/01/13 01:16:22;;;;;;;10.77;6.88;;;;;;;;;;4990350;28;20515;-73
2022/01/13 01:18:54;;;;;;;11.13;6.72;;;;;;;;;;4989747;28;20048;-72
2022/01/13 01:29:07;;;;;;;10.63;7.18;;;;;;;;;;4990126;28;20050;-75
2022/01/13 01:31:35;;;;;;;11.82;7.47;;;;;;;;;;4988912;28;20053;-74
2022/01/13 01:36:47;;;;;;;12.95;7.65;;;;;;;;;;4989497;28;20101;-74
2022/01/13 01:39:13;;;;;;;9.65;6.68;;;;;;;;;;4990083;28;20065;-75
2022/01/13 01:41:40;;;;;;;10.10;6.57;;;;;;;;;;4988170;28;20112;-75
2022/01/13 01:44:08;;;;;;;14.20;7.10;;;;;;;;;;4989363;28;20046;-78
2022/01/13 01:46:35;;;;;;;10.82;6.50;;;;;;;;;;4989388;28;20082;-78
2022/01/13 01:49:04;;;;;;;14.45;7.18;;;;;;;;;;4988253;28;20085;-76
2022/01/13 01:51:30;;;;;;;16.17;7.22;;;;;;;;;;4989947;28;20097;-75
2022/01/13 01:53:56;;;;;;;10.50;6.47;;;;;;;;;;4989313;28;20053;-75
2022/01/13 01:56:22;;;;;;;13.27;6.68;;;;;;;;;;4972001;28;20058;-74
2022/01/13 01:58:49;;;;;;;11.85;6.50;;;;;;;;;;4989694;28;20054;-74
2022/01/13 02:01:15;;;;;;;10.90;6.47;;;;;;;;;;4989348;28;20053;-74
2022/01/13 02:03:41;;;;;;;13.00;7.20;;;;;;;;;;4989318;28;20078;-75
2022/01/13 02:06:08;;;;;;;10.13;6.85;;;;;;;;;;4989412;28;20076;-74
2022/01/13 02:08:34;;;;;;;14.35;7.50;;;;;;;;;;4989361;28;20512;-74
2022/01/13 02:11:00;;;;;;;9.95;6.70;;;;;;;;;;4989244;28;20042;-74
2022/01/13 02:13:33;;;;;;;12.55;6.32;;;;;;;;;;4989603;28;20059;-74
2022/01/13 02:18:28;;;;;;;12.18;6.95;;;;;;;;;;4989204;28;20049;-74
2022/01/13 02:20:54;;;;;;;11.30;7.50;;;;;;;;;;4989292;28;20050;-75
2022/01/13 02:23:37;;;;;;;9.98;6.38;;;;;;;;;;4989250;28;20495;-74
2022/01/13 02:26:04;;;;;;;12.50;6.57;;;;;;;;;;4987927;28;20050;-73
2022/01/13 02:28:30;;;;;;;13.27;7.05;;;;;;;;;;4989308;28;20042;-74
2022/01/13 02:30:56;;;;;;;11.75;7.22;;;;;;;;;;4987781;28;20133;-74
2022/01/13 02:33:22;;;;;;;11.23;7.30;;;;;;;;;;4989206;28;20050;-74
2022/01/13 02:35:48;;;;;;;13.27;7.63;;;;;;;;;;4988086;28;20433;-74
2022/01/13 02:38:14;;;;;;;11.85;7.07;;;;;;;;;;4988992;28;20042;-74
2022/01/13 02:40:40;;;;;;;10.18;6.63;;;;;;;;;;4988619;28;20049;-74
2022/01/13 02:43:07;;;;;;;11.48;7.85;;;;;;;;;;4989039;28;20049;-74
2022/01/13 02:45:37;;;;;;;14.25;7.70;;;;;;;;;;4989255;28;20445;-74
2022/01/13 02:50:40;;;;;;;12.13;7.28;;;;;;;;;;4988599;28;20121;-74
2022/01/13 02:53:07;;;;;;;11.93;7.47;;;;;;;;;;4989618;28;20057;-74
2022/01/13 02:55:33;;;;;;;13.13;7.82;;;;;;;;;;4993365;28;20447;-74
2022/01/13 02:58:00;;;;;;;10.27;6.82;;;;;;;;;;4992214;28;20057;-73
2022/01/13 03:00:26;;;;;;;11.40;7.22;;;;;;;;;;4991766;28;20038;-74
2022/01/13 03:02:52;;;;;;;11.45;7.65;;;;;;;;;;4992888;28;20046;-74
2022/01/13 03:05:19;;;;;;;12.23;7.68;;;;;;;;;;4992686;28;20038;-74
2022/01/13 03:07:45;;;;;;;13.32;7.93;;;;;;;;;;4992773;28;20050;-73
2022/01/13 03:10:12;;;;;;;13.30;7.72;;;;;;;;;;4992286;28;20054;-75
2022/01/13 03:12:42;;;;;;;11.75;7.60;;;;;;;;;;4992677;28;20050;-74
2022/01/13 03:15:08;;;;;;;11.70;8.20;;;;;;;;;;4992320;28;20497;-74
2022/01/13 03:17:34;;;;;;;13.05;7.78;;;;;;;;;;4992397;28;20141;-74
2022/01/13 03:20:00;;;;;;;11.00;7.82;;;;;;;;;;4992135;28;20132;-74
2022/01/13 03:22:26;;;;;;;13.00;8.05;;;;;;;;;;4992851;28;20436;-74
2022/01/13 03:24:52;;;;;;;11.07;7.32;;;;;;;;;;4992208;28;20508;-74
2022/01/13 03:27:21;;;;;;;11.25;7.75;;;;;;;;;;4992359;28;20402;-74
2022/01/13 03:29:48;;;;;;;12.68;7.88;;;;;;;;;;4992104;28;20089;-74
2022/01/13 03:32:15;;;;;;;14.48;8.20;;;;;;;;;;4992239;28;20637;-73
2022/01/13 03:34:41;;;;;;;13.57;7.47;;;;;;;;;;4992301;28;20649;-73
2022/01/13 03:37:07;;;;;;;13.57;8.32;;;;;;;;;;4990893;28;20476;-74
2022/01/13 03:39:33;;;;;;;13.02;7.25;;;;;;;;;;4992287;28;20523;-74
2022/01/13 03:42:02;;;;;;;14.05;7.82;;;;;;;;;;4991806;28;20185;-74
2022/01/13 03:44:28;;;;;;;11.90;7.90;;;;;;;;;;4992236;28;20104;-74
2022/01/13 03:46:55;;;;;;;13.63;7.68;;;;;;;;;;4990874;28;20297;-74
2022/01/13 03:49:21;;;;;;;15.45;7.88;;;;;;;;;;4991853;28;20170;-74
2022/01/13 03:51:59;;;;;;;11.85;7.72;;;;;;;;;;4992152;28;20042;-74
2022/01/13 03:54:45;;;;;;;11.00;6.95;;;;;;;;;;4991896;28;20050;-74
2022/01/13 03:57:14;;;;;;;12.60;7.82;;;;;;;;;;4990587;28;20077;-74
2022/01/13 03:59:40;;;;;;;12.32;7.90;;;;;;;;;;4992256;28;20460;-74
2022/01/13 04:02:07;;;;;;;12.38;7.95;;;;;;;;;;4992098;28;20046;-74
2022/01/13 04:04:36;;;;;;;14.77;8.10;;;;;;;;;;4991110;28;20057;-74
2022/01/13 04:07:14;;;;;;;13.32;7.45;;;;;;;;;;4991092;28;20046;-75
2022/01/13 04:09:40;;;;;;;12.10;7.50;;;;;;;;;;4991707;28;20496;-74
2022/01/13 04:12:10;;;;;;;10.75;7.28;;;;;;;;;;4990095;28;20073;-74
2022/01/13 04:17:12;;;;;;;12.20;7.75;;;;;;;;;;4991463;28;20053;-74
2022/01/13 04:19:38;;;;;;;13.00;8.05;;;;;;;;;;4991609;28;20169;-75
2022/01/13 04:22:05;;;;;;;14.23;7.07;;;;;;;;;;4990801;28;20042;-75
2022/01/13 04:24:31;;;;;;;11.68;7.30;;;;;;;;;;4991410;28;20124;-75
2022/01/13 04:26:58;;;;;;;14.95;7.97;;;;;;;;;;4991241;28;20146;-75
2022/01/13 04:29:35;;;;;;;12.57;7.88;;;;;;;;;;4991436;28;20053;-76
2022/01/13 04:32:02;;;;;;;10.77;7.57;;;;;;;;;;4989656;28;20282;-76
2022/01/13 04:34:28;;;;;;;20.77;8.50;;;;;;;;;;4991455;28;20491;-75
2022/01/13 04:37:00;;;;;;;13.77;7.38;;;;;;;;;;4989590;28;20416;-75
2022/01/13 04:39:26;;;;;;;12.57;8.02;;;;;;;;;;4990095;28;20431;-75
2022/01/13 04:41:53;;;;;;;12.30;7.32;;;;;;;;;;4990953;28;20046;-75
2022/01/13 04:44:20;;;;;;;14.70;7.30;;;;;;;;;;4989608;28;20082;-75
2022/01/13 04:46:47;;;;;;;13.73;7.55;;;;;;;;;;4990326;28;20058;-75
2022/01/13 04:49:13;;;;;;;13.98;7.63;;;;;;;;;;4990540;28;20090;-75
2022/01/13 04:51:40;;;;;;;11.52;7.00;;;;;;;;;;4989711;28;20077;-76
2022/01/13 04:54:06;;;;;;;12.65;7.32;;;;;;;;;;4990844;28;20129;-75
2022/01/13 04:56:41;;;;;;;13.15;7.40;;;;;;;;;;4990625;28;20475;-75
2022/01/13 04:59:07;;;;;;;12.68;7.40;;;;;;;;;;4990784;28;20508;-75
2022/01/13 05:01:34;;;;;;;13.18;7.30;;;;;;;;;;4990250;28;20081;-74
2022/01/13 05:04:00;;;;;;;12.30;7.78;;;;;;;;;;4989377;28;20061;-74
2022/01/13 05:06:26;;;;;;;11.38;7.53;;;;;;;;;;4990753;28;20413;-74
2022/01/13 05:08:52;;;;;;;10.85;7.50;;;;;;;;;;4989301;28;20049;-73
2022/01/13 05:11:20;;;;;;;14.63;7.65;;;;;;;;;;4990351;28;20046;-73
2022/01/13 05:13:46;;;;;;;12.23;8.38;;;;;;;;;;4990003;28;20436;-74
2022/01/13 05:16:22;;;;;;;11.55;8.00;;;;;;;;;;4990363;28;20057;-74
2022/01/13 05:19:08;;;;;;;10.05;6.90;;;;;;;;;;4989108;28;20078;-74
2022/01/13 05:21:46;;;;;;;13.52;7.95;;;;;;;;;;4990078;28;20526;-76
2022/01/13 05:24:14;;;;;;;10.50;7.10;;;;;;;;;;4990010;28;20058;-76
2022/01/13 05:26:40;;;;;;;12.88;7.93;;;;;;;;;;4989963;28;20512;-76
2022/01/13 05:29:06;;;;;;;11.38;7.20;;;;;;;;;;4989338;28;20764;-75
2022/01/13 05:31:32;;;;;;;9.93;6.82;;;;;;;;;;4990114;28;20466;-76
2022/01/13 05:33:58;;;;;;;10.40;7.43;;;;;;;;;;4989891;28;20042;-75
2022/01/13 05:36:24;;;;;;;11.00;7.38;;;;;;;;;;4989623;28;20054;-73
2022/01/13 05:38:50;;;;;;;10.82;7.47;;;;;;;;;;4989790;28;20112;-75
2022/01/13 05:41:16;;;;;;;10.68;7.35;;;;;;;;;;4989062;28;20054;-76
2022/01/13 05:43:43;;;;;;;11.70;7.65;;;;;;;;;;4989684;28;20085;-76
2022/01/13 05:46:09;;;;;;;13.60;7.35;;;;;;;;;;4989315;28;20049;-76
2022/01/13 05:48:35;;;;;;;10.43;7.28;;;;;;;;;;4989598;28;20089;-76
2022/01/13 05:51:01;;;;;;;11.43;7.32;;;;;;;;;;4989724;28;20088;-76
2022/01/13 05:53:27;;;;;;;14.05;7.72;;;;;;;;;;4989411;28;20065;-75
2022/01/13 05:55:53;;;;;;;10.30;7.93;;;;;;;;;;4989122;28;20050;-75
2022/01/13 05:58:19;;;;;;;10.07;7.55;;;;;;;;;;4989345;28;20050;-75
2022/01/13 06:00:45;;;;;;;10.75;7.47;;;;;;;;;;4988305;28;20049;-75
2022/01/13 06:03:11;;;;;;;11.38;7.95;;;;;;;;;;4987962;28;20042;-75
2022/01/13 06:05:37;;;;;;;12.00;7.85;;;;;;;;;;4989003;28;20042;-75
2022/01/13 06:08:03;;;;;;;12.73;8.05;;;;;;;;;;4989215;28;20057;-77
2022/01/13 06:10:30;;;;;;;12.85;8.18;;;;;;;;;;4989507;28;20054;-76
2022/01/13 06:12:56;;;;;;;10.63;7.85;;;;;;;;;;4989355;28;20046;-75
2022/01/13 06:15:24;;;;;;;10.50;7.85;;;;;;;;;;4988580;28;20084;-74
2022/01/13 06:17:51;;;;;;;12.80;8.60;;;;;;;;;;4989259;28;20134;-74
2022/01/13 06:20:18;;;;;;;11.15;7.72;;;;;;;;;;4988079;28;20038;-74
2022/01/13 06:22:45;;;;;;;10.95;8.52;;;;;;;;;;4989342;28;20161;-74
2022/01/13 06:25:12;;;;;;;12.35;8.30;;;;;;;;;;4989175;28;20057;-74
2022/01/13 06:27:39;;;;;;;12.05;8.18;;;;;;;;;;4988878;28;20057;-74
2022/01/13 06:30:07;;;;;;;13.95;8.32;;;;;;;;;;4987105;28;20050;-71
2022/01/13 06:32:33;;;;;;;15.35;7.63;;;;;;;;;;4989248;28;20504;-75
2022/01/13 06:34:59;;;;;;;19.10;8.02;;;;;;;;;;4989019;28;20050;-75
2022/01/13 06:37:25;;;;;;;21.30;7.85;;;;;;;;;;4988778;28;20053;-75
2022/01/13 06:39:51;;;;;;;15.32;7.68;;;;;;;;;;4989232;28;20042;-75
2022/01/13 06:42:17;;;;;;;12.13;7.35;;;;;;;;;;4988892;28;20058;-75
2022/01/13 06:44:44;;;;;;;16.20;8.30;;;;;;;;;;4989067;28;20045;-75
2022/01/13 06:47:10;;;;;;;12.02;7.60;;;;;;;;;;4986917;28;20058;-75
2022/01/13 06:49:36;;;;;;;12.18;7.97;;;;;;;;;;4988723;28;20050;-75
2022/01/13 06:52:03;;;;;;;11.73;7.78;;;;;;;;;;4988803;28;20059;-75
2022/01/13 06:54:29;;;;;;;11.75;7.97;;;;;;;;;;4987549;28;20042;-75
2022/01/13 06:56:55;;;;;;;11.52;8.10;;;;;;;;;;4988842;28;20477;-75
2022/01/13 06:59:21;;;;;;;13.85;8.15;;;;;;;;;;4987931;28;20057;-75
2022/01/13 07:01:48;;;;;;;11.95;7.95;;;;;;;;;;4988412;28;20092;-74
2022/01/13 07:04:15;;;;;;;12.18;7.63;;;;;;;;;;4988737;28;20093;-75
2022/01/13 07:06:42;;;;;;;12.82;8.15;;;;;;;;;;4989019;28;20089;-74
2022/01/13 07:09:09;;;;;;;12.25;8.18;;;;;;;;;;4988702;28;20038;-74
2022/01/13 07:11:35;;;;;;;15.73;9.35;;;;;;;;;;4989075;28;20046;-74
2022/01/13 07:14:01;;;;;;;13.73;8.88;;;;;;;;;;4988886;28;20050;-74
2022/01/13 07:16:28;;;;;;;14.27;8.75;;;;;;;;;;4989560;28;20042;-75
2022/01/13 07:18:54;;;;;;;13.18;8.48;;;;;;;;;;4988849;28;20048;-75
2022/01/13 07:21:21;;;;;;;13.55;8.70;;;;;;;;;;4987610;28;20054;-76
2022/01/13 07:23:47;;;;;;;14.20;9.57;;;;;;;;;;4987416;28;20085;-70
2022/01/13 07:26:13;;;;;;;11.35;7.68;;;;;;;;;;4988001;28;20054;-74
2022/01/13 07:28:39;;;;;;;14.13;9.23;;;;;;;;;;4988932;28;20480;-74
2022/01/13 07:31:06;;;;;;;13.38;8.93;;;;;;;;;;4988449;28;20042;-74
2022/01/13 07:33:32;;;;;;;13.73;8.85;;;;;;;;;;4988433;28;20050;-74
2022/01/13 07:35:58;;;;;;;14.75;9.10;;;;;;;;;;4987011;28;20480;-74
2022/01/13 07:38:24;;;;;;;14.50;8.23;;;;;;;;;;4988433;28;20061;-74
2022/01/13 07:40:50;;;;;;;14.38;8.50;;;;;;;;;;4989952;28;20085;-74
2022/01/13 07:43:22;;;;;;;11.52;7.93;;;;;;;;;;4992304;28;20057;-75
2022/01/13 07:45:48;;;;;;;13.77;8.77;;;;;;;;;;4992288;28;20050;-74
2022/01/13 07:48:14;;;;;;;13.40;8.60;;;;;;;;;;4991781;28;20054;-74
2022/01/13 07:50:40;;;;;;;12.45;8.73;;;;;;;;;;4991619;28;20054;-74
2022/01/13 07:53:06;;;;;;;14.77;8.65;;;;;;;;;;4990521;28;20468;-74
2022/01/13 07:55:32;;;;;;;15.65;9.02;;;;;;;;;;4991601;28;20054;-74
2022/01/13 07:57:59;;;;;;;15.88;8.85;;;;;;;;;;4991142;28;20045;-74
2022/01/13 08:00:25;;;;;;;14.38;9.57;;;;;;;;;;4991656;28;20097;-74
2022/01/13 08:02:51;;;;;;;13.93;9.43;;;;;;;;;;4992058;28;20050;-74
2022/01/13 08:05:17;;;;;;;12.45;8.18;;;;;;;;;;4991505;28;20093;-73
2022/01/13 08:07:43;;;;;;;16.45;9.45;;;;;;;;;;4990418;28;20046;-73
2022/01/13 08:10:09;;;;;;;16.27;9.25;;;;;;;;;;4991120;28;20088;-73
2022/01/13 08:12:35;;;;;;;15.85;8.70;;;;;;;;;;4991834;28;20042;-73
2022/01/13 08:15:01;;;;;;;13.25;9.18;;;;;;;;;;4990306;28;20150;-73
2022/01/13 08:20:12;;;;;;;13.40;9.38;;;;;;;;;;4991397;28;20112;-73
2022/01/13 08:22:38;;;;;;;15.48;9.60;;;;;;;;;;4973588;28;20125;-73
2022/01/13 08:25:04;;;;;;;14.93;9.23;;;;;;;;;;4989884;28;20057;-74
2022/01/13 08:27:30;;;;;;;17.58;9.98;;;;;;;;;;4991578;28;20583;-73
2022/01/13 08:29:56;;;;;;;12.55;8.85;;;;;;;;;;4990897;28;20046;-73
2022/01/13 08:32:22;;;;;;;14.63;8.82;;;;;;;;;;4991343;28;20042;-76
2022/01/13 08:34:48;;;;;;;15.85;9.70;;;;;;;;;;4991411;28;20050;-77
2022/01/13 08:37:15;;;;;;;18.30;10.50;;;;;;;;;;4989657;28;20052;-77
2022/01/13 08:39:44;;;;;;;16.48;8.93;;;;;;;;;;4991288;28;20053;-77
2022/01/13 08:42:10;;;;;;;;;;;;;;;;;;4991307;28;20053;-76
2022/01/13 08:44:36;;;;;;;13.00;7.55;;;;;;;;;;4990984;28;19921;-77
2022/01/13 08:47:02;;;;;;;11.98;7.97;;;;;;;;;;4990911;28;20141;-77
2022/01/13 08:49:29;;;;;;;11.25;7.13;;;;;;;;;;4989399;28;20133;-76
2022/01/13 08:51:55;;;;;;;12.98;7.75;;;;;;;;;;4989427;28;20042;-77
2022/01/13 08:54:22;;;;;;;11.52;7.38;;;;;;;;;;4991026;28;20054;-76
2022/01/13 08:56:48;;;;;;;11.95;7.72;;;;;;;;;;4991360;28;20046;-76
2022/01/13 08:59:15;;;;;;;15.85;7.85;;;;;;;;;;4989695;28;20054;-76
2022/01/13 09:01:41;;;;;;;12.38;7.68;;;;;;;;;;4989786;28;20133;-75
2022/01/13 09:04:08;;;;;;;12.60;7.80;;;;;;;;;;4988744;28;20571;-76
2022/01/13 09:06:34;;;;;;;13.25;7.00;;;;;;;;;;4990706;28;20050;-74
2022/01/13 09:09:00;;;;;;;11.88;7.15;;;;;;;;;;4979613;28;20121;-76
2022/01/13 09:11:26;;;;;;;11.85;6.75;;;;;;;;;;4975220;28;20527;-75
2022/01/13 09:13:57;;;;;;;10.15;6.93;;;;;;;;;;4967997;28;20162;-77
2022/01/13 09:16:24;;;;;;;10.60;7.07;;;;;;;;;;4973963;28;20133;-75
2022/01/13 09:21:23;;;;;;;11.60;7.68;;;;;;;;;;4969417;28;20051;-75
2022/01/13 09:23:49;;;;;;;10.05;6.38;;;;;;;;;;4968876;28;20093;-75
2022/01/13 09:26:15;;;;;;;14.65;7.30;;;;;;;;;;4968538;28;20105;-75
2022/01/13 09:28:42;;;;;;;8.93;5.97;;;;;;;;;;4967576;28;20476;-75
2022/01/13 09:31:08;;;;;;;9.65;6.22;;;;;;;;;;4969113;28;20065;-75
2022/01/13 09:33:34;;;;;;;12.25;7.20;;;;;;;;;;4968343;28;20425;-75
2022/01/13 09:36:01;;;;;;;9.60;6.05;;;;;;;;;;4968883;28;20063;-75
2022/01/13 09:38:27;;;;;;;9.25;6.18;;;;;;;;;;4969192;28;20069;-76
2022/01/13 09:40:54;;;;;;;11.45;5.50;;;;;;;;;;4966783;28;20058;-75
2022/01/13 09:43:25;;;;;;;11.50;6.47;;;;;;;;;;4966988;28;20058;-76
2022/01/13 09:45:51;;;;;;;9.05;5.82;;;;;;;;;;4969381;28;20093;-76
2022/01/13 09:48:18;;;;;;;10.43;5.75;;;;;;;;;;4968404;28;20058;-74
2022/01/13 09:50:48;;;;;;;9.52;5.82;;;;;;;;;;4966526;28;20193;-74
2022/01/13 09:53:14;;;;;;;13.85;5.60;;;;;;;;;;4964258;28;20131;-73
2022/01/13 09:55:41;;;;;;;10.25;6.30;;;;;;;;;;4968319;28;20134;-69
2022/01/13 09:58:10;;;;;;;9.43;6.18;;;;;;;;;;4968310;28;20046;-74
2022/01/13 10:00:37;;;;;;;8.20;5.28;;;;;;;;;;4969048;28;20051;-74
2022/01/13 10:03:13;;;;;;;12.18;6.50;;;;;;;;;;4967896;28;20046;-75
2022/01/13 10:05:47;;;;;;;11.65;6.80;;;;;;;;;;4966144;28;20043;-75
2022/01/13 10:08:13;;;;;;;10.18;5.95;;;;;;;;;;4967605;28;20145;-74
2022/01/13 10:10:39;;;;;;;9.73;5.57;;;;;;;;;;4968545;28;20452;-73
2022/01/13 10:13:09;;;;;;;9.90;6.22;;;;;;;;;;4966965;28;20054;-75
2022/01/13 10:18:44;;;;;;;9.40;5.53;;;;;;;;;;4968635;28;20572;-75
2022/01/13 10:21:12;;;;;;;8.55;5.88;;;;;;;;;;4968454;28;20051;-74
2022/01/13 10:23:38;;;;;;;10.35;6.03;;;;;;;;;;4969583;28;20047;-74
2022/01/13 10:26:09;;;;;;;8.95;5.90;;;;;;;;;;4968011;28;20049;-75
2022/01/13 10:28:35;;;;;;;10.48;6.45;;;;;;;;;;4970204;28;20054;-77
2022/01/13 10:31:01;;;;;;;13.07;6.68;;;;;;;;;;4970073;28;20074;-74
2022/01/13 10:33:28;;;;;;;10.52;6.38;;;;;;;;;;4969384;28;20523;-76
2022/01/13 10:36:06;;;;;;;10.73;6.95;;;;;;;;;;4969232;28;20089;-74
2022/01/13 10:38:51;;;;;;;12.13;6.20;;;;;;;;;;4968816;28;20057;-74
2022/01/13 10:42:00;;;;;;;9.88;6.07;;;;;;;;;;4968715;28;20054;-72
2022/01/13 10:44:24;;;;;;;9.90;5.90;;;;;;;;;;4968731;28;20047;-76
2022/01/13 10:47:01;;;;;;;10.65;6.18;;;;;;;;;;4980921;28;20133;-74
2022/01/13 10:49:50;;;;;;;10.05;5.97;;;;;;;;;;4969117;28;20074;-74
2022/01/13 10:52:23;;;;;;;9.10;5.87;;;;;;;;;;4969711;28;20105;-75
2022/01/13 10:54:51;;;;;;;8.43;5.82;;;;;;;;;;4968585;28;20380;-76
2022/01/13 10:57:18;;;;;;;8.70;5.85;;;;;;;;;;4969083;28;20046;-76
2022/01/13 10:59:44;;;;;;;13.63;6.30;;;;;;;;;;4969437;28;20085;-77
2022/01/13 11:02:11;;;;;;;8.23;5.43;;;;;;;;;;4979435;28;20045;-74
2022/01/13 11:04:37;;;;;;;8.60;5.72;;;;;;;;;;4986805;28;20042;-77
2022/01/13 11:07:14;;;;;;;9.40;5.90;;;;;;;;;;4969855;28;20046;-76
2022/01/13 11:09:43;;;;;;;8.73;5.65;;;;;;;;;;4967419;28;20043;-75
2022/01/13 11:12:14;;;;;;;9.05;5.72;;;;;;;;;;4967904;28;20046;-78
2022/01/13 11:14:42;;;;;;;10.68;6.10;;;;;;;;;;4953398;28;20506;-78
2022/01/13 11:17:12;;;;;;;8.65;5.82;;;;;;;;;;4971817;28;20112;-75
2022/01/13 11:19:44;;;;;;;8.18;5.18;;;;;;;;;;4972458;28;20078;-77
2022/01/13 11:22:12;;;;;;;10.68;6.35;;;;;;;;;;4989898;28;20092;-77
2022/01/13 11:24:46;;;;;;;10.15;5.90;;;;;;;;;;4983973;28;20131;-78
2022/01/13 11:27:14;;;;;;;9.48;6.18;;;;;;;;;;4972906;28;20046;-78
2022/01/13 11:29:40;;;;;;;11.40;6.05;;;;;;;;;;4955508;28;20105;-76
2022/01/13 11:32:07;;;;;;;10.35;6.68;;;;;;;;;;4972678;28;20047;-78
2022/01/13 11:34:35;;;;;;;;;;;;;;;;;;4992004;28;20132;-78
2022/01/13 11:37:01;;;;;;;9.25;5.90;;;;;;;;;;4992288;28;19922;-79
2022/01/13 11:39:41;;;;;;;8.63;5.85;;;;;;;;;;4991999;28;20484;-79
2022/01/13 11:42:08;;;;;;;11.32;6.22;;;;;;;;;;4990923;28;20411;-77
2022/01/13 11:44:35;;;;;;;11.15;6.45;;;;;;;;;;4992196;28;20046;-78
2022/01/13 11:47:01;;;;;;;9.52;5.88;;;;;;;;;;4973664;28;20046;-76
2022/01/13 11:52:15;;;;;;;10.65;6.15;;;;;;;;;;4991938;28;20136;-77
2022/01/13 11:54:42;;;;;;;10.00;5.78;;;;;;;;;;4978699;28;20057;-80
2022/01/13 11:57:08;;;;;;;8.73;5.68;;;;;;;;;;4971721;28;20171;-79
2022/01/13 11:59:34;;;;;;;10.82;6.20;;;;;;;;;;4971428;28;20051;-79
2022/01/13 12:02:35;;;;;;;9.85;6.00;;;;;;;;;;4971672;28;20054;-78
2022/01/13 12:05:04;;;;;;;10.23;5.95;;;;;;;;;;4950543;28;20142;-77
2022/01/13 12:07:35;;;;;;;11.70;6.10;;;;;;;;;;4968219;28;20054;-78
2022/01/13 12:10:02;;;;;;;9.68;6.22;;;;;;;;;;4971513;28;20051;-78
2022/01/13 12:12:32;;;;;;;9.52;6.40;;;;;;;;;;4971628;28;20086;-77
2022/01/13 12:15:14;;;;;;;9.18;5.82;;;;;;;;;;4972225;28;20388;-77
2022/01/13 12:17:44;;;;;;;9.48;5.60;;;;;;;;;;4971476;28;20057;-76
2022/01/13 12:20:56;;;;;;;9.80;5.80;;;;;;;;;;4971819;28;20054;-75
2022/01/13 12:23:40;;;;;;;13.80;5.88;;;;;;;;;;4970786;28;20074;-76
2022/01/13 12:26:25;;;;;;;10.48;5.78;;;;;;;;;;4969588;28;20479;-76
2022/01/13 12:29:09;;;;;;;10.60;5.65;;;;;;;;;;4972137;28;20441;-76
2022/01/13 12:31:35;;;;;;;10.73;5.93;;;;;;;;;;4972216;28;20149;-76
2022/01/13 12:34:01;;;;;;;10.63;6.07;;;;;;;;;;4971744;28;20082;-76
2022/01/13 12:36:27;;;;;;;10.60;6.10;;;;;;;;;;4970440;28;20134;-75
2022/01/13 12:39:00;;;;;;;12.38;7.00;;;;;;;;;;4971491;28;20126;-75
2022/01/13 12:41:28;;;;;;;8.15;5.38;;;;;;;;;;4971813;28;20417;-76
2022/01/13 12:44:19;;;;;;;9.15;5.93;;;;;;;;;;4971954;28;20055;-76
2022/01/13 12:46:46;;;;;;;10.50;6.53;;;;;;;;;;4971619;28;20059;-76
2022/01/13 12:49:13;;;;;;;11.77;6.15;;;;;;;;;;4969545;28;20054;-76
2022/01/13 12:51:39;;;;;;;9.02;6.22;;;;;;;;;;4971929;28;20425;-76
2022/01/13 12:54:05;;;;;;;8.88;5.88;;;;;;;;;;4970375;28;20546;-76
2022/01/13 12:56:31;;;;;;;8.93;6.25;;;;;;;;;;4971361;28;20039;-75
2022/01/13 12:59:00;;;;;;;11.30;6.15;;;;;;;;;;4971544;28;20047;-76
2022/01/13 13:01:27;;;;;;;8.20;6.00;;;;;;;;;;4971364;28;20050;-77
2022/01/13 13:04:03;;;;;;;8.65;6.00;;;;;;;;;;4970579;28;20074;-77
2022/01/13 13:06:30;;;;;;;9.07;6.15;;;;;;;;;;4970226;28;20050;-77
2022/01/13 13:09:03;;;;;;;10.70;6.40;;;;;;;;;;4971013;28;20137;-76
2022/01/13 13:11:33;;;;;;;12.98;6.30;;;;;;;;;;4970636;28;20046;-76
2022/01/13 13:14:00;;;;;;;10.30;6.60;;;;;;;;;;4971162;28;20452;-75
2022/01/13 13:16:26;;;;;;;8.43;5.90;;;;;;;;;;4971061;28;20425;-76
2022/01/13 13:18:52;;;;;;;9.75;6.13;;;;;;;;;;4969983;28;20047;-76
2022/01/13 13:21:18;;;;;;;8.93;5.82;;;;;;;;;;4971052;28;20564;-76
2022/01/13 13:23:45;;;;;;;10.63;5.97;;;;;;;;;;4970411;28;20089;-75
2022/01/13 13:26:13;;;;;;;10.45;5.85;;;;;;;;;;4970860;28;20505;-75
2022/01/13 13:28:44;;;;;;;11.23;5.90;;;;;;;;;;4971008;28;20513;-75
2022/01/13 13:31:17;;;;;;;8.57;5.47;;;;;;;;;;4970843;28;20365;-74
2022/01/13 13:33:45;;;;;;;8.80;5.88;;;;;;;;;;4970732;28;20050;-73
2022/01/13 13:36:22;;;;;;;11.45;6.55;;;;;;;;;;4970159;28;20503;-73
2022/01/13 13:38:49;;;;;;;9.00;5.60;;;;;;;;;;4952302;28;20046;-74
2022/01/13 13:41:18;;;;;;;12.50;6.10;;;;;;;;;;4970663;28;20061;-74
2022/01/13 13:43:45;;;;;;;9.88;5.90;;;;;;;;;;4970894;28;20053;-73
2022/01/13 13:46:13;;;;;;;12.63;5.88;;;;;;;;;;4969166;28;20429;-73
2022/01/13 13:48:41;;;;;;;9.25;5.82;;;;;;;;;;4970911;28;20580;-73
2022/01/13 13:51:07;;;;;;;9.02;5.75;;;;;;;;;;4969270;28;20051;-73
2022/01/13 13:53:33;;;;;;;8.23;5.82;;;;;;;;;;4970429;28;20042;-73
2022/01/13 13:56:01;;;;;;;9.50;5.97;;;;;;;;;;4968845;28;20078;-73
2022/01/13 13:58:27;;;;;;;7.90;5.70;;;;;;;;;;4970262;28;20043;-73
2022/01/13 14:00:59;;;;;;;9.50;5.18;;;;;;;;;;4969196;28;20100;-74
2022/01/13 14:03:44;;;;;;;9.27;5.60;;;;;;;;;;4970393;28;20055;-74
2022/01/13 14:06:11;;;;;;;9.85;5.72;;;;;;;;;;4970375;28;20453;-74
2022/01/13 14:08:51;;;;;;;8.73;5.53;;;;;;;;;;4969877;28;20349;-76
2022/01/13 14:11:17;;;;;;;;;;;;;;;;;;4970535;28;20050;-77
2022/01/13 14:13:43;;;;;;;25.58;5.88;;;;;;;;;;4969471;28;19926;-77
2022/01/13 14:16:12;;;;;;;11.75;5.80;;;;;;;;;;4970382;28;20042;-77
2022/01/13 14:18:41;;;;;;;10.10;5.03;;;;;;;;;;4970394;28;20078;-76
2022/01/13 14:21:07;;;;;;;10.05;5.35;;;;;;;;;;4969590;28;20098;-74
2022/01/13 14:23:34;;;;;;;11.77;5.60;;;;;;;;;;4970166;28;20043;-75
2022/01/13 14:26:05;;;;;;;8.93;4.72;;;;;;;;;;4969881;28;20042;-74
2022/01/13 14:28:35;;;;;;;8.48;5.03;;;;;;;;;;4969807;28;20086;-73
2022/01/13 14:31:05;;;;;;;8.93;5.10;;;;;;;;;;4970159;28;20047;-76
2022/01/13 14:33:34;;;;;;;9.27;5.57;;;;;;;;;;4970348;28;20039;-71
2022/01/13 14:36:02;;;;;;;9.95;5.78;;;;;;;;;;4969611;28;20043;-75
2022/01/13 14:38:46;;;;;;;8.80;4.93;;;;;;;;;;4965005;28;20055;-73
2022/01/13 14:41:28;;;;;;;15.52;5.00;;;;;;;;;;4950634;28;20098;-75
2022/01/13 14:43:59;;;;;;;9.07;5.63;;;;;;;;;;4950646;28;20050;-72
2022/01/13 14:46:26;;;;;;;11.18;5.38;;;;;;;;;;4950075;28;20066;-74
2022/01/13 14:48:52;;;;;;;10.43;5.25;;;;;;;;;;4950586;28;20130;-73
2022/01/13 14:51:20;;;;;;;8.73;5.15;;;;;;;;;;4959504;28;20047;-74
2022/01/13 14:53:46;;;;;;;10.60;5.13;;;;;;;;;;4973725;28;20054;-72
2022/01/13 14:56:14;;;;;;;9.90;5.55;;;;;;;;;;4973285;28;20054;-75
2022/01/13 14:58:41;;;;;;;11.48;5.80;;;;;;;;;;4973617;28;20098;-74
2022/01/13 15:01:09;;;;;;;7.32;4.88;;;;;;;;;;4973566;28;20592;-75
2022/01/13 15:03:35;;;;;;;8.20;4.85;;;;;;;;;;4973678;28;20047;-76
2022/01/13 15:06:01;;;;;;;8.07;4.50;;;;;;;;;;4972813;28;20043;-76
2022/01/13 15:08:29;;;;;;;12.32;5.07;;;;;;;;;;4972431;28;20049;-78
2022/01/13 15:10:56;;;;;;;8.30;4.57;;;;;;;;;;4972278;28;20043;-80
2022/01/13 15:13:24;;;;;;;9.55;4.57;;;;;;;;;;4970768;28;20210;-78